createdAt,value
2018-04-26T00:00:25.267Z,16.42
2018-04-26T00:02:52.943Z,16.35
2018-04-26T00:05:20.557Z,16.33
2018-04-26T00:07:48.165Z,16.32
2018-04-26T00:10:15.868Z,16.33
2018-04-26T00:12:43.494Z,16.15
2018-04-26T00:15:11.242Z,16.31
2018-04-26T00:17:38.891Z,16.29
2018-04-26T00:20:06.522Z,16.27
2018-04-26T00:22:34.187Z,16.18
2018-04-26T00:25:01.837Z,16.13
2018-04-26T00:27:29.469Z,16.06
2018-04-26T00:29:57.114Z,16.00
2018-04-26T00:32:24.786Z,15.86
2018-04-26T00:34:52.391Z,15.90
2018-04-26T00:37:20.095Z,16.01
2018-04-26T00:39:47.803Z,15.87
2018-04-26T00:42:15.405Z,15.91
2018-04-26T00:44:43.071Z,15.69
2018-04-26T00:47:10.736Z,15.51
2018-04-26T00:49:38.332Z,15.63
2018-04-26T00:52:05.972Z,15.71
2018-04-26T00:54:33.588Z,15.73
2018-04-26T00:57:01.293Z,15.64
2018-04-26T00:59:28.942Z,15.50
2018-04-26T01:01:56.684Z,15.71
2018-04-26T01:04:24.270Z,15.75
2018-04-26T01:06:51.877Z,15.70
2018-04-26T01:09:19.526Z,15.59
2018-04-26T01:11:47.147Z,15.59
2018-04-26T01:14:14.834Z,15.54
2018-04-26T01:16:42.472Z,15.57
2018-04-26T01:19:10.056Z,15.56
2018-04-26T01:21:37.701Z,15.65
2018-04-26T01:24:05.322Z,15.65
2018-04-26T01:26:32.977Z,15.68
2018-04-26T01:29:00.566Z,15.70
2018-04-26T01:31:28.240Z,15.88
2018-04-26T01:33:55.939Z,15.83
2018-04-26T01:36:35.360Z,15.78
2018-04-26T01:39:03.018Z,15.62
2018-04-26T01:41:30.604Z,15.62
2018-04-26T01:43:58.263Z,15.53
2018-04-26T01:46:25.870Z,15.59
2018-04-26T01:48:53.592Z,15.58
2018-04-26T01:51:21.228Z,15.44
2018-04-26T01:53:49.311Z,15.47
2018-04-26T01:56:16.900Z,15.37
2018-04-26T01:58:44.552Z,15.38
2018-04-26T02:01:12.189Z,15.41
2018-04-26T02:03:39.768Z,15.40
2018-04-26T02:06:07.429Z,15.30
2018-04-26T02:08:35.050Z,15.29
2018-04-26T02:11:02.701Z,15.34
2018-04-26T02:13:30.311Z,15.38
2018-04-26T02:15:57.937Z,15.42
2018-04-26T02:18:25.597Z,15.38
2018-04-26T02:20:53.250Z,15.36
2018-04-26T02:23:20.886Z,15.25
2018-04-26T02:25:48.570Z,15.24
2018-04-26T02:28:16.174Z,15.15
2018-04-26T02:30:43.824Z,15.18
2018-04-26T02:33:11.427Z,15.06
2018-04-26T02:35:39.077Z,14.90
2018-04-26T02:38:06.784Z,15.00
2018-04-26T02:40:34.406Z,15.00
2018-04-26T02:43:02.064Z,15.02
2018-04-26T02:45:29.772Z,15.03
2018-04-26T02:47:57.471Z,15.08
2018-04-26T02:50:58.577Z,15.08
2018-04-26T02:53:26.232Z,15.11
2018-04-26T02:55:53.824Z,15.12
2018-04-26T02:58:21.431Z,15.10
2018-04-26T03:00:49.145Z,14.86
2018-04-26T03:03:16.735Z,14.90
2018-04-26T03:05:44.390Z,15.06
2018-04-26T03:08:12.037Z,15.04
2018-04-26T03:10:39.707Z,15.04
2018-04-26T03:13:07.336Z,15.02
2018-04-26T03:15:34.959Z,14.92
2018-04-26T03:18:02.826Z,14.82
2018-04-26T03:20:30.479Z,14.92
2018-04-26T03:22:58.072Z,14.90
2018-04-26T03:25:25.720Z,14.97
2018-04-26T03:27:53.418Z,14.97
2018-04-26T03:30:21.077Z,15.08
2018-04-26T03:32:48.749Z,15.01
2018-04-26T03:35:16.402Z,14.94
2018-04-26T03:37:44.102Z,14.94
2018-04-26T03:40:11.733Z,14.91
2018-04-26T03:42:39.342Z,14.88
2018-04-26T03:45:07.014Z,14.72
2018-04-26T03:47:34.665Z,14.68
2018-04-26T03:50:02.325Z,14.77
2018-04-26T03:52:29.963Z,14.77
2018-04-26T03:54:57.614Z,14.78
2018-04-26T03:57:25.255Z,14.65
2018-04-26T04:00:04.819Z,14.57
2018-04-26T04:02:44.200Z,14.68
2018-04-26T04:05:23.469Z,14.69
2018-04-26T04:07:51.161Z,14.55
2018-04-26T04:10:18.892Z,14.61
2018-04-26T04:12:46.513Z,14.84
2018-04-26T04:15:14.111Z,14.87
2018-04-26T04:17:41.861Z,14.99
2018-04-26T04:20:09.503Z,15.05
2018-04-26T04:22:37.178Z,15.07
2018-04-26T04:25:04.839Z,14.98
2018-04-26T04:27:32.861Z,14.82
2018-04-26T04:30:00.509Z,14.93
2018-04-26T04:32:28.191Z,14.96
2018-04-26T04:34:56.156Z,15.11
2018-04-26T04:37:23.919Z,14.96
2018-04-26T04:39:51.515Z,14.97
2018-04-26T04:42:19.336Z,14.99
2018-04-26T04:44:46.977Z,14.92
2018-04-26T04:47:14.774Z,14.86
2018-04-26T04:49:43.106Z,14.84
2018-04-26T04:52:11.233Z,14.84
2018-04-26T04:54:39.077Z,14.88
2018-04-26T04:57:06.740Z,14.82
2018-04-26T04:59:34.351Z,14.88
2018-04-26T05:02:02.110Z,14.93
2018-04-26T05:04:29.869Z,14.88
2018-04-26T05:06:57.651Z,14.95
2018-04-26T05:09:26.074Z,14.94
2018-04-26T05:11:53.696Z,14.96
2018-04-26T05:14:21.527Z,14.88
2018-04-26T05:16:49.738Z,14.91
2018-04-26T05:19:18.173Z,14.79
2018-04-26T05:21:46.248Z,14.78
2018-04-26T05:24:14.001Z,14.85
2018-04-26T05:26:41.876Z,14.80
2018-04-26T05:29:09.849Z,14.64
2018-04-26T05:31:37.498Z,14.65
2018-04-26T05:34:05.585Z,14.66
2018-04-26T05:36:33.450Z,14.76
2018-04-26T05:39:02.144Z,14.80
2018-04-26T05:41:29.888Z,14.79
2018-04-26T05:43:57.798Z,14.76
2018-04-26T05:46:25.524Z,14.82
2018-04-26T05:48:53.150Z,14.91
2018-04-26T05:51:20.957Z,14.87
2018-04-26T05:53:48.737Z,14.85
2018-04-26T05:56:16.389Z,14.79
2018-04-26T05:58:44.029Z,14.81
2018-04-26T06:01:11.802Z,14.68
2018-04-26T06:03:39.509Z,14.64
2018-04-26T06:06:07.245Z,14.69
2018-04-26T06:08:35.111Z,14.73
2018-04-26T06:11:02.876Z,14.65
2018-04-26T06:13:30.517Z,14.65
2018-04-26T06:15:58.609Z,14.53
2018-04-26T06:18:26.213Z,14.58
2018-04-26T06:20:53.931Z,14.67
2018-04-26T06:23:21.583Z,14.63
2018-04-26T06:25:49.516Z,14.47
2018-04-26T06:28:17.186Z,14.45
2018-04-26T06:30:44.927Z,14.34
2018-04-26T06:33:12.659Z,14.35
2018-04-26T06:35:40.343Z,14.29
2018-04-26T06:38:08.162Z,14.21
2018-04-26T06:40:36.729Z,14.21
2018-04-26T06:43:04.431Z,14.15
2018-04-26T06:45:32.038Z,14.17
2018-04-26T06:47:59.689Z,14.25
2018-04-26T06:50:27.495Z,14.19
2018-04-26T06:52:55.271Z,14.15
2018-04-26T06:55:22.876Z,14.08
2018-04-26T06:57:50.542Z,14.07
2018-04-26T07:00:18.178Z,14.08
2018-04-26T07:02:45.781Z,13.99
2018-04-26T07:05:13.451Z,13.95
2018-04-26T07:07:41.079Z,13.92
2018-04-26T07:10:08.763Z,13.71
2018-04-26T07:12:36.375Z,13.74
2018-04-26T07:15:04.024Z,13.60
2018-04-26T07:17:31.629Z,13.43
2018-04-26T07:19:59.272Z,13.36
2018-04-26T07:22:26.858Z,13.18
2018-04-26T07:24:54.514Z,13.41
2018-04-26T07:27:22.109Z,13.35
2018-04-26T07:29:49.769Z,13.24
2018-04-26T07:32:17.434Z,13.29
2018-04-26T07:34:45.092Z,13.14
2018-04-26T07:37:12.729Z,13.09
2018-04-26T07:39:40.376Z,13.17
2018-04-26T07:42:08.041Z,13.00
2018-04-26T07:44:35.690Z,13.09
2018-04-26T07:47:03.392Z,13.12
2018-04-26T07:49:31.031Z,13.10
2018-04-26T07:51:58.696Z,13.08
2018-04-26T07:54:26.330Z,13.13
2018-04-26T07:56:53.939Z,13.00
2018-04-26T07:59:21.592Z,12.95
2018-04-26T08:01:49.395Z,13.04
2018-04-26T08:04:16.918Z,13.04
2018-04-26T08:06:44.526Z,12.98
2018-04-26T08:09:12.172Z,13.01
2018-04-26T08:11:39.822Z,12.95
2018-04-26T08:14:07.431Z,12.88
2018-04-26T08:16:35.191Z,12.92
2018-04-26T08:19:02.830Z,13.02
2018-04-26T08:21:30.501Z,12.98
2018-04-26T08:23:58.112Z,13.10
2018-04-26T08:26:25.813Z,12.98
2018-04-26T08:28:53.403Z,13.06
2018-04-26T08:31:21.119Z,13.11
2018-04-26T08:33:48.878Z,13.07
2018-04-26T08:36:16.512Z,13.26
2018-04-26T08:38:44.170Z,13.32
2018-04-26T08:41:11.775Z,13.25
2018-04-26T08:43:39.514Z,13.13
2018-04-26T08:46:07.210Z,13.29
2018-04-26T08:48:34.799Z,13.52
2018-04-26T08:51:02.803Z,13.46
2018-04-26T08:53:30.548Z,13.50
2018-04-26T08:55:58.208Z,13.40
2018-04-26T08:58:25.873Z,13.56
2018-04-26T09:00:53.517Z,13.32
2018-04-26T09:03:21.197Z,13.52
2018-04-26T09:05:48.848Z,13.47
2018-04-26T09:08:16.417Z,13.50
2018-04-26T09:10:44.040Z,13.57
2018-04-26T09:13:11.637Z,13.55
2018-04-26T09:15:39.317Z,13.40
2018-04-26T09:18:06.933Z,13.36
2018-04-26T09:20:34.623Z,13.58
2018-04-26T09:23:02.243Z,13.76
2018-04-26T09:25:29.872Z,13.71
2018-04-26T09:27:57.579Z,13.68
2018-04-26T09:30:25.264Z,13.70
2018-04-26T09:32:52.899Z,13.87
2018-04-26T09:35:22.475Z,13.69
2018-04-26T09:37:50.122Z,13.75
2018-04-26T09:40:17.763Z,13.75
2018-04-26T09:42:45.407Z,13.77
2018-04-26T09:45:13.041Z,13.51
2018-04-26T09:47:40.642Z,13.81
2018-04-26T09:50:08.289Z,13.73
2018-04-26T09:52:35.953Z,13.68
2018-04-26T09:55:03.600Z,13.78
2018-04-26T09:57:31.296Z,13.86
2018-04-26T09:59:58.883Z,13.86
2018-04-26T10:02:26.554Z,13.89
2018-04-26T10:04:55.469Z,13.86
2018-04-26T10:07:23.234Z,13.83
2018-04-26T10:09:50.961Z,13.59
2018-04-26T10:12:18.579Z,13.29
2018-04-26T10:14:46.281Z,13.40
2018-04-26T10:17:13.908Z,13.23
2018-04-26T10:19:41.796Z,12.83
2018-04-26T10:22:09.469Z,12.69
2018-04-26T10:24:37.065Z,12.42
2018-04-26T10:27:04.781Z,12.29
2018-04-26T10:29:32.549Z,12.05
2018-04-26T10:32:00.245Z,11.77
2018-04-26T10:34:28.846Z,11.66
2018-04-26T10:36:56.510Z,11.73
2018-04-26T10:39:24.174Z,11.80
2018-04-26T10:41:52.589Z,11.86
2018-04-26T10:44:20.255Z,11.53
2018-04-26T10:46:47.907Z,11.53
2018-04-26T10:49:15.572Z,11.48
2018-04-26T10:51:43.200Z,11.61
2018-04-26T10:54:10.964Z,11.60
2018-04-26T10:56:38.569Z,11.59
2018-04-26T10:59:06.252Z,11.86
2018-04-26T11:01:33.950Z,11.89
2018-04-26T11:04:01.611Z,11.91
2018-04-26T11:06:29.317Z,11.89
2018-04-26T11:08:56.954Z,11.76
2018-04-26T11:11:24.675Z,11.57
2018-04-26T11:13:52.314Z,11.67
2018-04-26T11:16:19.972Z,11.78
2018-04-26T11:18:47.573Z,11.85
2018-04-26T11:21:17.460Z,11.95
2018-04-26T11:23:45.113Z,11.99
2018-04-26T11:26:14.032Z,11.90
2018-04-26T11:28:41.831Z,11.98
2018-04-26T11:31:09.597Z,11.86
2018-04-26T11:33:37.233Z,12.06
2018-04-26T11:36:04.950Z,12.22
2018-04-26T11:38:32.639Z,12.05
2018-04-26T11:41:00.305Z,12.16
2018-04-26T11:43:28.038Z,11.88
2018-04-26T11:45:55.653Z,11.83
2018-04-26T11:48:23.343Z,11.66
2018-04-26T11:50:50.965Z,11.63
2018-04-26T11:53:19.776Z,11.74
2018-04-26T11:55:47.439Z,11.62
2018-04-26T11:58:15.093Z,11.46
2018-04-26T12:00:42.780Z,11.43
2018-04-26T12:03:10.470Z,11.42
2018-04-26T12:05:38.105Z,11.71
2018-04-26T12:08:05.758Z,11.77
2018-04-26T12:10:33.493Z,11.82
2018-04-26T12:13:01.164Z,11.86
2018-04-26T12:15:28.790Z,12.04
2018-04-26T12:17:56.494Z,12.25
2018-04-26T12:20:24.157Z,12.18
2018-04-26T12:22:51.984Z,11.90
2018-04-26T12:25:19.674Z,11.76
2018-04-26T12:27:47.317Z,11.84
2018-04-26T12:30:14.987Z,11.89
2018-04-26T12:32:42.717Z,12.09
2018-04-26T12:35:10.340Z,12.27
2018-04-26T12:37:38.016Z,12.32
2018-04-26T12:40:05.740Z,12.17
2018-04-26T12:42:33.486Z,12.05
2018-04-26T12:45:01.097Z,12.33
2018-04-26T12:47:28.801Z,12.29
2018-04-26T12:49:56.453Z,12.19
2018-04-26T12:52:24.077Z,12.25
2018-04-26T12:54:52.620Z,12.36
2018-04-26T12:57:20.279Z,12.32
2018-04-26T12:59:48.034Z,12.57
2018-04-26T13:02:15.697Z,12.64
2018-04-26T13:04:43.458Z,12.34
2018-04-26T13:07:11.050Z,12.62
2018-04-26T13:09:38.697Z,12.38
2018-04-26T13:12:06.387Z,11.99
2018-04-26T13:14:33.990Z,12.42
2018-04-26T13:17:01.579Z,12.42
2018-04-26T13:19:29.236Z,12.20
2018-04-26T13:21:56.896Z,12.33
2018-04-26T13:24:24.587Z,12.47
2018-04-26T13:26:52.453Z,12.53
2018-04-26T13:29:20.138Z,12.52
2018-04-26T13:31:47.797Z,12.33
2018-04-26T13:34:15.477Z,12.59
2018-04-26T13:36:43.110Z,12.39
2018-04-26T13:39:10.799Z,12.37
2018-04-26T13:41:38.501Z,12.52
2018-04-26T13:44:06.157Z,12.59
2018-04-26T13:46:33.855Z,12.55
2018-04-26T13:49:01.524Z,12.57
2018-04-26T13:51:29.182Z,12.47
2018-04-26T13:53:56.840Z,12.67
2018-04-26T13:56:24.463Z,12.46
2018-04-26T13:58:53.110Z,12.57
2018-04-26T14:01:20.728Z,12.52
2018-04-26T14:03:48.435Z,12.57
2018-04-26T14:06:16.161Z,12.56
2018-04-26T14:08:43.836Z,12.47
2018-04-26T14:11:11.488Z,12.46
2018-04-26T14:13:39.086Z,12.75
2018-04-26T14:16:06.752Z,12.84
2018-04-26T14:18:34.411Z,12.68
2018-04-26T14:21:02.106Z,12.77
2018-04-26T14:23:29.799Z,12.76
2018-04-26T14:25:57.491Z,12.76
2018-04-26T14:28:25.183Z,12.43
2018-04-26T14:30:52.885Z,12.40
2018-04-26T14:33:20.652Z,12.26
2018-04-26T14:35:48.510Z,12.20
2018-04-26T14:38:16.221Z,12.30
2018-04-26T14:40:43.924Z,12.36
2018-04-26T14:43:11.722Z,12.42
2018-04-26T14:45:39.355Z,12.52
2018-04-26T14:48:07.083Z,12.42
2018-04-26T14:50:34.740Z,12.34
2018-04-26T14:53:02.461Z,12.58
2018-04-26T14:55:30.096Z,12.69
2018-04-26T14:57:57.776Z,12.54
2018-04-26T15:00:25.466Z,12.51
2018-04-26T15:02:53.162Z,12.29
2018-04-26T15:05:21.447Z,12.27
2018-04-26T15:07:49.098Z,12.07
2018-04-26T15:10:16.766Z,12.27
2018-04-26T15:12:44.681Z,12.29
2018-04-26T15:15:12.431Z,12.32
2018-04-26T15:17:40.505Z,12.26
2018-04-26T15:20:08.372Z,12.16
2018-04-26T15:22:37.589Z,11.92
2018-04-26T15:25:06.160Z,11.92
2018-04-26T15:27:33.867Z,11.86
2018-04-26T15:30:01.682Z,11.72
2018-04-26T15:32:29.343Z,11.78
2018-04-26T15:34:57.090Z,11.76
2018-04-26T15:37:25.656Z,11.59
2018-04-26T15:39:53.354Z,11.77
2018-04-26T15:42:21.134Z,11.75
2018-04-26T15:44:48.790Z,11.89
2018-04-26T15:47:16.405Z,11.99
2018-04-26T15:49:44.097Z,11.96
2018-04-26T15:52:11.881Z,11.64
2018-04-26T15:55:00.325Z,11.58
2018-04-26T16:01:00.873Z,11.79
2018-04-26T16:03:40.214Z,11.57
2018-04-26T16:06:32.438Z,11.44
2018-04-26T16:09:11.983Z,11.60
2018-04-26T16:11:52.099Z,11.49
2018-04-26T16:14:35.325Z,11.30
2018-04-26T16:17:32.753Z,11.26
2018-04-26T16:20:18.692Z,11.26
2018-04-26T16:23:03.796Z,11.22
2018-04-26T16:25:43.629Z,11.22
2018-04-26T16:28:28.721Z,11.22
2018-04-26T16:31:13.867Z,11.15
2018-04-26T16:33:55.312Z,11.31
2018-04-26T16:36:34.613Z,11.33
2018-04-26T16:39:09.981Z,11.31
2018-04-26T16:41:37.712Z,11.19
2018-04-26T16:44:05.441Z,11.39
2018-04-26T16:46:33.127Z,11.36
2018-04-26T16:49:02.190Z,11.46
2018-04-26T16:51:29.849Z,11.56
2018-04-26T16:53:57.774Z,11.56
2018-04-26T16:56:25.762Z,11.50
2018-04-26T16:58:53.780Z,11.58
2018-04-26T17:01:22.059Z,11.46
2018-04-26T17:03:50.375Z,11.44
2018-04-26T17:06:20.259Z,11.40
2018-04-26T17:08:48.091Z,11.46
2018-04-26T17:11:16.839Z,11.39
2018-04-26T17:13:44.760Z,11.41
2018-04-26T17:16:12.791Z,11.40
2018-04-26T17:18:40.669Z,11.39
2018-04-26T17:21:08.429Z,11.14
2018-04-26T17:23:38.002Z,11.22
2018-04-26T17:26:07.534Z,11.27
2018-04-26T17:28:35.708Z,11.35
2018-04-26T17:31:03.829Z,11.29
2018-04-26T17:33:32.667Z,11.38
2018-04-26T17:36:01.668Z,11.32
2018-04-26T17:38:29.471Z,11.42
2018-04-26T17:40:57.573Z,11.35
2018-04-26T17:43:25.463Z,11.25
2018-04-26T17:45:54.555Z,11.31
2018-04-26T17:48:22.419Z,11.30
2018-04-26T17:50:51.008Z,11.29
2018-04-26T17:53:19.739Z,11.30
2018-04-26T17:55:47.556Z,11.22
2018-04-26T17:58:15.233Z,11.25
2018-04-26T18:00:43.089Z,11.21
2018-04-26T18:03:11.127Z,11.20
2018-04-26T18:05:38.816Z,11.00
2018-04-26T18:08:06.679Z,11.08
2018-04-26T18:10:34.762Z,11.09
2018-04-26T18:13:02.941Z,11.10
2018-04-26T18:15:31.034Z,11.08
2018-04-26T18:17:58.877Z,11.12
2018-04-26T18:20:26.929Z,10.98
2018-04-26T18:22:56.017Z,11.01
2018-04-26T18:25:23.702Z,10.92
2018-04-26T18:27:51.526Z,10.88
2018-04-26T18:30:19.748Z,10.86
2018-04-26T18:32:47.761Z,10.87
2018-04-26T18:35:15.465Z,10.90
2018-04-26T18:37:43.559Z,10.83
2018-04-26T18:40:11.685Z,10.94
2018-04-26T18:42:39.490Z,10.91
2018-04-26T18:45:10.342Z,10.78
2018-04-26T18:47:38.434Z,10.70
2018-04-26T18:50:06.288Z,10.67
2018-04-26T18:52:34.299Z,10.71
2018-04-26T18:55:02.422Z,10.71
2018-04-26T18:57:30.178Z,10.72
2018-04-26T18:59:58.109Z,10.67
2018-04-26T19:02:25.978Z,10.69
2018-04-26T19:04:53.654Z,10.70
2018-04-26T19:07:21.426Z,10.67
2018-04-26T19:09:49.644Z,10.66
2018-04-26T19:12:17.272Z,10.64
2018-04-26T19:14:44.963Z,10.67
2018-04-26T19:17:12.631Z,10.61
2018-04-26T19:19:40.281Z,10.61
2018-04-26T19:22:08.004Z,10.59
2018-04-26T19:24:35.737Z,10.61
2018-04-26T19:27:03.328Z,10.58
2018-04-26T19:29:31.752Z,10.51
2018-04-26T19:31:59.396Z,10.55
2018-04-26T19:34:27.067Z,10.52
2018-04-26T19:36:54.734Z,10.45
2018-04-26T19:39:22.508Z,10.43
2018-04-26T19:41:50.154Z,10.41
2018-04-26T19:44:17.824Z,10.44
2018-04-26T19:46:46.479Z,10.45
2018-04-26T19:49:14.156Z,10.45
2018-04-26T19:51:41.884Z,10.48
2018-04-26T19:54:09.585Z,10.39
2018-04-26T19:56:37.315Z,10.43
2018-04-26T19:59:04.935Z,10.43
2018-04-26T20:01:32.614Z,10.49
2018-04-26T20:04:00.317Z,10.27
2018-04-26T20:06:27.978Z,10.10
2018-04-26T20:08:55.625Z,10.20
2018-04-26T20:11:23.339Z,10.16
2018-04-26T20:13:50.971Z,10.13
2018-04-26T20:16:18.657Z,10.21
2018-04-26T20:18:46.358Z,10.20
2018-04-26T20:21:14.054Z,10.05
2018-04-26T20:23:41.650Z,10.06
2018-04-26T20:26:09.334Z,10.12
2018-04-26T20:28:36.970Z,10.15
2018-04-26T20:31:04.728Z,10.18
2018-04-26T20:33:32.371Z,10.24
2018-04-26T20:36:00.066Z,10.25
2018-04-26T20:38:27.710Z,10.20
2018-04-26T20:40:55.404Z,10.16
2018-04-26T20:43:23.048Z,10.14
2018-04-26T20:45:50.756Z,10.03
2018-04-26T20:48:30.040Z,10.06
2018-04-26T20:50:57.724Z,10.03
2018-04-26T20:53:25.309Z,10.06
2018-04-26T20:55:52.984Z,9.99
2018-04-26T20:58:20.644Z,9.96
2018-04-26T21:00:48.313Z,9.97
2018-04-26T21:03:15.985Z,9.91
2018-04-26T21:05:43.753Z,9.71
2018-04-26T21:08:11.351Z,9.72
2018-04-26T21:10:39.243Z,9.80
2018-04-26T21:13:06.897Z,9.75
2018-04-26T21:15:34.557Z,9.60
2018-04-26T21:18:02.289Z,9.73
2018-04-26T21:20:29.892Z,9.79
2018-04-26T21:22:57.474Z,9.77
2018-04-26T21:25:25.165Z,9.70
2018-04-26T21:27:52.808Z,9.65
2018-04-26T21:30:20.406Z,9.64
2018-04-26T21:32:48.036Z,9.63
2018-04-26T21:35:15.695Z,9.59
2018-04-26T21:37:43.319Z,9.49
2018-04-26T21:40:10.926Z,9.48
2018-04-26T21:42:38.644Z,9.47
2018-04-26T21:45:06.293Z,9.41
2018-04-26T21:47:33.941Z,9.42
2018-04-26T21:50:07.317Z,9.46
2018-04-26T21:52:40.458Z,9.36
2018-04-26T21:55:13.498Z,9.30
2018-04-26T21:57:46.805Z,9.30
2018-04-26T22:00:20.031Z,9.19
2018-04-26T22:02:47.116Z,9.23
2018-04-26T22:05:33.277Z,9.17
2018-04-26T22:08:01.053Z,9.16
2018-04-26T22:10:28.750Z,9.18
2018-04-26T22:12:56.407Z,9.06
2018-04-26T22:15:24.265Z,8.96
2018-04-26T22:17:51.836Z,8.78
2018-04-26T22:20:19.452Z,8.79
2018-04-26T22:22:47.074Z,8.74
2018-04-26T22:25:14.662Z,8.81
2018-04-26T22:27:42.283Z,8.79
2018-04-26T22:30:11.400Z,8.74
2018-04-26T22:32:39.025Z,8.66
2018-04-26T22:35:06.780Z,8.71
2018-04-26T22:37:34.401Z,8.73
2018-04-26T22:40:01.986Z,8.70
2018-04-26T22:42:29.622Z,8.77
2018-04-26T22:44:57.239Z,8.73
2018-04-26T22:47:24.893Z,8.56
2018-04-26T22:49:52.465Z,8.53
2018-04-26T22:52:20.114Z,8.44
2018-04-26T22:54:47.707Z,8.48
2018-04-26T22:57:15.353Z,8.45
2018-04-26T22:59:42.973Z,8.49
2018-04-26T23:02:10.636Z,8.49
2018-04-26T23:04:38.338Z,8.43
2018-04-26T23:07:05.947Z,8.43
2018-04-26T23:09:33.592Z,8.45
2018-04-26T23:12:01.268Z,8.47
2018-04-26T23:14:28.894Z,8.30
2018-04-26T23:16:56.575Z,8.25
2018-04-26T23:19:24.200Z,8.30
2018-04-26T23:21:51.899Z,8.27
2018-04-26T23:24:19.488Z,8.15
2018-04-26T23:26:47.084Z,8.16
2018-04-26T23:29:14.714Z,8.15
2018-04-26T23:31:42.380Z,8.13
2018-04-26T23:34:10.013Z,8.13
2018-04-26T23:36:37.635Z,8.06
2018-04-26T23:39:06.239Z,8.02
2018-04-26T23:41:33.843Z,7.99
2018-04-26T23:44:01.504Z,8.04
2018-04-26T23:46:29.165Z,7.98
2018-04-26T23:48:56.801Z,8.06
2018-04-26T23:51:24.491Z,7.82
2018-04-26T23:53:52.064Z,7.75
2018-04-26T23:56:19.719Z,7.64
2018-04-26T23:58:47.345Z,7.53
